createdAt,value
2023-01-13T00:01:29.609Z,62.89
2023-01-13T00:03:57.662Z,62.60
2023-01-13T00:06:26.288Z,62.73
2023-01-13T00:08:54.366Z,62.77
2023-01-13T00:11:22.516Z,63.01
2023-01-13T00:13:50.111Z,62.93
2023-01-13T00:16:18.856Z,62.54
2023-01-13T00:18:47.106Z,62.64
2023-01-13T00:21:18.826Z,62.98
2023-01-13T00:23:46.933Z,62.97
2023-01-13T00:26:23.425Z,63.02
2023-01-13T00:28:51.464Z,62.43
2023-01-13T00:31:21.233Z,62.94
2023-01-13T00:33:51.137Z,63.33
2023-01-13T00:36:20.620Z,63.44
2023-01-13T00:38:48.150Z,63.09
2023-01-13T00:41:18.298Z,63.01
2023-01-13T00:43:46.862Z,62.90
2023-01-13T00:46:17.106Z,62.87
2023-01-13T00:48:45.657Z,63.19
2023-01-13T00:51:17.189Z,63.56
2023-01-13T00:53:52.076Z,63.36
2023-01-13T00:56:34.088Z,62.35
2023-01-13T00:59:05.813Z,62.50
2023-01-13T01:01:33.834Z,63.05
2023-01-13T01:04:01.358Z,63.19
2023-01-13T01:06:29.297Z,63.07
2023-01-13T01:08:57.329Z,63.13
2023-01-13T01:11:27.609Z,63.38
2023-01-13T01:13:57.491Z,63.43
2023-01-13T01:16:27.838Z,63.27
2023-01-13T01:18:56.651Z,63.33
2023-01-13T01:21:26.176Z,63.08
2023-01-13T01:23:58.808Z,62.23
2023-01-13T01:26:27.879Z,62.71
2023-01-13T01:28:58.014Z,62.94
2023-01-13T01:31:31.626Z,63.06
2023-01-13T01:34:00.764Z,62.55
2023-01-13T01:36:30.337Z,62.51
2023-01-13T01:38:59.382Z,62.04
2023-01-13T01:41:29.671Z,62.61
2023-01-13T01:44:05.975Z,62.39
2023-01-13T01:46:40.351Z,63.25
2023-01-13T01:49:33.501Z,63.23
2023-01-13T01:52:06.656Z,62.80
2023-01-13T01:54:48.900Z,63.24
2023-01-13T01:57:23.671Z,62.70
2023-01-13T01:59:52.766Z,63.40
2023-01-13T02:02:20.459Z,63.81
2023-01-13T02:04:53.490Z,63.38
2023-01-13T02:07:25.421Z,63.74
2023-01-13T02:09:55.597Z,63.75
2023-01-13T02:12:30.672Z,63.61
2023-01-13T02:15:21.137Z,64.19
2023-01-13T02:18:12.346Z,63.51
2023-01-13T02:21:24.160Z,63.63
2023-01-13T02:24:37.329Z,63.52
2023-01-13T02:27:33.894Z,64.01
2023-01-13T02:30:32.360Z,63.74
2023-01-13T02:33:13.911Z,64.04
2023-01-13T02:36:11.480Z,64.29
2023-01-13T02:38:53.226Z,64.27
2023-01-13T02:42:15.031Z,64.17
2023-01-13T02:44:48.220Z,64.00
2023-01-13T02:47:20.645Z,64.53
2023-01-13T02:49:58.475Z,64.26
2023-01-13T02:52:40.980Z,64.01
2023-01-13T02:55:20.169Z,63.50
2023-01-13T02:57:48.759Z,63.22
2023-01-13T03:00:18.717Z,64.35
2023-01-13T03:02:48.481Z,63.99
2023-01-13T03:05:17.434Z,64.09
2023-01-13T03:07:45.539Z,64.34
2023-01-13T03:10:38.031Z,63.50
2023-01-13T03:13:29.088Z,63.69
2023-01-13T03:16:06.255Z,64.37
2023-01-13T03:19:03.103Z,64.17
2023-01-13T03:21:45.369Z,64.20
2023-01-13T03:24:40.469Z,64.02
2023-01-13T03:27:51.323Z,64.55
2023-01-13T03:30:27.489Z,64.25
2023-01-13T03:33:05.031Z,64.14
2023-01-13T03:35:42.497Z,63.71
2023-01-13T03:38:12.664Z,63.23
2023-01-13T03:40:48.189Z,63.63
2023-01-13T03:43:40.695Z,63.89
2023-01-13T03:46:16.879Z,62.59
2023-01-13T03:48:46.971Z,62.96
2023-01-13T03:51:20.494Z,63.33
2023-01-13T03:53:55.368Z,63.58
2023-01-13T03:56:31.180Z,63.67
2023-01-13T03:59:02.370Z,63.72
2023-01-13T04:01:41.852Z,63.77
2023-01-13T04:04:51.739Z,63.37
2023-01-13T04:07:49.644Z,64.09
2023-01-13T04:10:23.706Z,63.41
2023-01-13T04:13:04.343Z,63.25
2023-01-13T04:15:41.040Z,63.67
2023-01-13T04:18:18.151Z,63.99
2023-01-13T04:20:47.559Z,63.02
2023-01-13T04:23:16.725Z,63.25
2023-01-13T04:25:45.544Z,63.44
2023-01-13T04:28:13.545Z,63.75
2023-01-13T04:30:42.121Z,62.68
2023-01-13T04:33:10.424Z,63.60
2023-01-13T04:35:38.367Z,63.00
2023-01-13T04:38:09.531Z,62.59
2023-01-13T04:40:37.209Z,63.03
2023-01-13T04:43:05.244Z,63.20
2023-01-13T04:45:33.276Z,63.21
2023-01-13T04:48:00.861Z,63.20
2023-01-13T04:50:28.546Z,63.17
2023-01-13T04:52:56.759Z,63.30
2023-01-13T04:55:25.246Z,63.21
2023-01-13T04:57:53.302Z,63.10
2023-01-13T05:00:23.029Z,63.64
2023-01-13T05:02:52.025Z,63.42
2023-01-13T05:05:20.461Z,62.91
2023-01-13T05:07:48.043Z,63.14
2023-01-13T05:10:16.008Z,62.32
2023-01-13T05:13:05.837Z,62.49
2023-01-13T05:15:51.891Z,62.67
2023-01-13T05:18:19.882Z,63.13
2023-01-13T05:20:47.530Z,62.85
2023-01-13T05:23:33.616Z,62.65
2023-01-13T05:26:02.256Z,62.86
2023-01-13T05:28:34.021Z,62.87
2023-01-13T05:31:01.810Z,63.16
2023-01-13T05:33:29.401Z,62.69
2023-01-13T05:35:57.005Z,62.73
2023-01-13T05:38:27.157Z,62.83
2023-01-13T05:41:13.076Z,63.06
2023-01-13T05:43:40.641Z,62.82
2023-01-13T05:46:09.932Z,62.46
2023-01-13T05:48:40.214Z,62.64
2023-01-13T05:51:10.029Z,62.82
2023-01-13T05:53:37.969Z,61.37
2023-01-13T05:56:08.106Z,62.22
2023-01-13T05:58:35.950Z,62.59
2023-01-13T06:01:08.023Z,63.71
2023-01-13T06:03:36.078Z,62.87
2023-01-13T06:06:04.690Z,62.93
2023-01-13T06:08:32.910Z,63.30
2023-01-13T06:11:00.653Z,63.09
2023-01-13T06:13:28.147Z,63.32
2023-01-13T06:16:00.234Z,63.78
2023-01-13T06:18:28.084Z,63.28
2023-01-13T06:20:56.176Z,63.19
2023-01-13T06:23:24.371Z,63.13
2023-01-13T06:26:14.651Z,63.47
2023-01-13T06:28:43.309Z,63.04
2023-01-13T06:31:13.273Z,62.84
2023-01-13T06:33:49.538Z,62.77
2023-01-13T06:36:22.470Z,62.62
2023-01-13T06:38:56.298Z,62.36
2023-01-13T06:41:44.353Z,62.40
2023-01-13T06:44:12.081Z,62.32
2023-01-13T06:46:39.771Z,62.40
2023-01-13T06:49:07.576Z,62.52
2023-01-13T06:51:35.150Z,62.63
2023-01-13T06:54:02.736Z,62.85
2023-01-13T06:56:30.284Z,62.56
2023-01-13T06:58:57.976Z,62.59
2023-01-13T07:01:25.739Z,62.52
2023-01-13T07:03:53.208Z,62.31
2023-01-13T07:06:20.659Z,61.98
2023-01-13T07:08:48.144Z,61.54
2023-01-13T07:11:15.677Z,62.45
2023-01-13T07:14:01.787Z,63.00
2023-01-13T07:16:29.360Z,62.90
2023-01-13T07:18:57.034Z,63.14
2023-01-13T07:21:24.871Z,63.62
2023-01-13T07:23:52.466Z,62.72
2023-01-13T07:26:20.172Z,63.01
2023-01-13T07:28:47.637Z,63.00
2023-01-13T07:31:20.975Z,63.00
2023-01-13T07:33:48.993Z,62.28
2023-01-13T07:36:16.512Z,62.02
2023-01-13T07:38:44.799Z,61.67
2023-01-13T07:41:32.865Z,61.90
2023-01-13T07:44:05.116Z,62.04
2023-01-13T07:46:33.932Z,61.66
2023-01-13T07:49:01.572Z,62.24
2023-01-13T07:51:29.182Z,61.79
2023-01-13T07:53:57.303Z,61.92
2023-01-13T07:56:25.120Z,61.65
2023-01-13T07:58:53.490Z,61.63
2023-01-13T08:01:21.252Z,61.84
2023-01-13T08:03:49.342Z,61.60
2023-01-13T08:06:17.282Z,61.46
2023-01-13T08:08:44.998Z,61.38
2023-01-13T08:11:12.722Z,61.12
2023-01-13T08:13:43.351Z,61.43
2023-01-13T08:16:14.123Z,62.11
2023-01-13T08:18:44.616Z,61.86
2023-01-13T08:21:14.788Z,62.58
2023-01-13T08:23:44.303Z,62.08
2023-01-13T08:26:17.443Z,61.62
2023-01-13T08:28:47.109Z,61.57
2023-01-13T08:31:17.042Z,61.34
2023-01-13T08:33:44.792Z,61.34
2023-01-13T08:36:15.575Z,60.74
2023-01-13T08:38:43.086Z,61.04
2023-01-13T08:41:36.618Z,60.87
2023-01-13T08:44:05.599Z,61.00
2023-01-13T08:46:33.119Z,61.32
2023-01-13T08:49:00.711Z,61.58
2023-01-13T08:51:28.227Z,61.32
2023-01-13T08:53:55.772Z,61.37
2023-01-13T08:56:23.319Z,61.63
2023-01-13T08:58:50.818Z,61.60
2023-01-13T09:01:22.935Z,61.13
2023-01-13T09:03:50.613Z,60.92
2023-01-13T09:06:18.152Z,61.16
2023-01-13T09:08:46.096Z,61.50
2023-01-13T09:11:44.601Z,62.10
2023-01-13T09:14:12.105Z,62.06
2023-01-13T09:16:39.563Z,62.29
2023-01-13T09:19:07.241Z,62.00
2023-01-13T09:21:35.482Z,62.37
2023-01-13T09:24:03.039Z,62.42
2023-01-13T09:26:30.513Z,62.23
2023-01-13T09:28:57.988Z,62.08
2023-01-13T09:31:25.601Z,62.44
2023-01-13T09:34:11.485Z,62.13
2023-01-13T09:36:39.201Z,62.36
2023-01-13T09:39:06.807Z,62.24
2023-01-13T09:42:00.539Z,62.20
2023-01-13T09:45:07.149Z,61.40
2023-01-13T09:47:43.630Z,62.43
2023-01-13T09:50:14.113Z,62.24
2023-01-13T09:52:43.380Z,62.42
2023-01-13T09:55:31.388Z,62.82
2023-01-13T09:57:59.126Z,62.56
2023-01-13T10:00:38.925Z,63.22
2023-01-13T10:03:27.701Z,63.45
2023-01-13T10:06:04.854Z,63.19
2023-01-13T10:08:42.114Z,62.79
2023-01-13T10:11:36.521Z,62.85
2023-01-13T10:14:43.278Z,62.71
2023-01-13T10:17:41.278Z,61.89
2023-01-13T10:20:36.171Z,62.25
2023-01-13T10:23:38.008Z,61.93
2023-01-13T10:26:05.429Z,61.45
2023-01-13T10:28:33.508Z,62.29
2023-01-13T10:31:05.304Z,62.29
2023-01-13T10:33:32.738Z,62.29
2023-01-13T10:36:14.331Z,62.05
2023-01-13T10:38:46.863Z,62.34
2023-01-13T10:41:18.002Z,62.03
2023-01-13T10:44:09.412Z,62.05
2023-01-13T10:46:52.920Z,61.76
2023-01-13T10:49:38.727Z,62.04
2023-01-13T10:52:26.363Z,62.62
2023-01-13T10:54:55.357Z,62.27
2023-01-13T10:57:24.043Z,61.87
2023-01-13T10:59:53.209Z,62.48
2023-01-13T11:02:31.366Z,62.25
2023-01-13T11:05:03.140Z,61.99
2023-01-13T11:07:36.226Z,62.09
2023-01-13T11:10:24.605Z,62.08
2023-01-13T11:13:28.405Z,62.55
2023-01-13T11:16:11.109Z,62.60
2023-01-13T11:19:02.481Z,61.83
2023-01-13T11:21:39.131Z,61.86
2023-01-13T11:24:15.529Z,62.45
2023-01-13T11:27:07.479Z,61.86
2023-01-13T11:30:00.988Z,61.72
2023-01-13T11:32:35.509Z,61.81
2023-01-13T11:35:10.012Z,61.23
2023-01-13T11:37:43.571Z,61.94
2023-01-13T11:40:21.205Z,62.11
2023-01-13T11:42:51.157Z,62.11
2023-01-13T11:45:29.291Z,61.86
2023-01-13T11:47:59.505Z,62.07
2023-01-13T11:50:50.795Z,62.59
2023-01-13T11:53:29.775Z,62.90
2023-01-13T11:56:11.653Z,62.77
2023-01-13T11:59:20.489Z,62.97
2023-01-13T12:02:06.393Z,62.34
2023-01-13T12:04:40.028Z,61.80
2023-01-13T12:07:22.874Z,62.00
2023-01-13T12:10:10.388Z,62.44
2023-01-13T12:13:07.531Z,62.42
2023-01-13T12:15:41.043Z,62.28
2023-01-13T12:18:39.570Z,63.07
2023-01-13T12:21:21.553Z,63.06
2023-01-13T12:24:01.053Z,61.97
2023-01-13T12:26:32.090Z,62.05
2023-01-13T12:29:06.686Z,62.09
2023-01-13T12:31:38.484Z,62.58
2023-01-13T12:34:27.481Z,62.12
2023-01-13T12:37:13.757Z,62.77
2023-01-13T12:40:02.365Z,62.47
2023-01-13T12:43:05.690Z,63.28
2023-01-13T12:45:33.611Z,62.97
2023-01-13T12:48:01.420Z,62.93
2023-01-13T12:50:29.287Z,63.00
2023-01-13T12:52:58.024Z,62.51
2023-01-13T12:55:35.722Z,62.64
2023-01-13T12:58:03.109Z,62.80
2023-01-13T13:00:39.948Z,63.59
2023-01-13T13:03:18.570Z,63.72
2023-01-13T13:05:55.827Z,63.60
2023-01-13T13:08:35.244Z,63.74
2023-01-13T13:11:33.424Z,63.77
2023-01-13T13:14:03.156Z,63.15
2023-01-13T13:16:30.623Z,63.55
2023-01-13T13:19:22.753Z,64.28
2023-01-13T13:22:19.099Z,64.04
2023-01-13T13:24:49.392Z,63.40
2023-01-13T13:27:20.762Z,63.63
2023-01-13T13:30:06.145Z,63.19
2023-01-13T13:33:10.672Z,63.83
2023-01-13T13:36:16.855Z,63.55
2023-01-13T13:39:34.884Z,63.90
2023-01-13T13:42:31.277Z,64.13
2023-01-13T13:45:20.220Z,63.85
2023-01-13T13:47:47.869Z,63.67
2023-01-13T13:50:20.944Z,63.75
2023-01-13T13:53:06.352Z,64.00
2023-01-13T13:55:34.362Z,64.13
2023-01-13T13:58:01.858Z,64.39
2023-01-13T14:00:38.176Z,64.69
2023-01-13T14:03:30.361Z,64.16
2023-01-13T14:06:01.142Z,63.79
2023-01-13T14:08:37.473Z,64.11
2023-01-13T14:11:30.996Z,64.84
2023-01-13T14:14:14.569Z,64.12
2023-01-13T14:16:42.059Z,63.80
2023-01-13T14:19:35.198Z,63.81
2023-01-13T14:22:05.078Z,64.21
2023-01-13T14:24:33.118Z,64.47
2023-01-13T14:27:09.325Z,65.29
2023-01-13T14:29:37.614Z,65.32
2023-01-13T14:32:07.352Z,64.41
2023-01-13T14:34:39.185Z,65.13
2023-01-13T14:37:24.230Z,65.39
2023-01-13T14:39:51.771Z,65.55
2023-01-13T14:42:19.667Z,65.65
2023-01-13T14:44:50.342Z,65.20
2023-01-13T14:47:28.156Z,65.53
2023-01-13T14:50:19.281Z,65.19
2023-01-13T14:52:49.273Z,65.23
2023-01-13T14:55:16.692Z,64.95
2023-01-13T14:57:44.213Z,65.29
2023-01-13T15:00:14.399Z,65.67
2023-01-13T15:02:44.777Z,65.63
2023-01-13T15:05:30.199Z,66.46
2023-01-13T15:08:05.443Z,65.93
2023-01-13T15:10:48.970Z,66.14
2023-01-13T15:13:35.720Z,66.23
2023-01-13T15:16:14.864Z,65.93
2023-01-13T15:18:42.689Z,66.28
2023-01-13T15:21:10.845Z,66.10
2023-01-13T15:23:40.085Z,66.33
2023-01-13T15:26:19.977Z,66.94
2023-01-13T15:28:48.163Z,66.23
2023-01-13T15:31:16.273Z,65.65
2023-01-13T15:33:46.004Z,65.92
2023-01-13T15:36:37.992Z,67.04
2023-01-13T15:39:10.052Z,66.46
2023-01-13T15:41:55.960Z,66.45
2023-01-13T15:44:42.192Z,66.03
2023-01-13T15:47:14.587Z,66.34
2023-01-13T15:49:46.185Z,66.87
2023-01-13T15:52:22.962Z,67.18
2023-01-13T15:54:51.680Z,66.63
2023-01-13T15:57:30.842Z,67.08
2023-01-13T16:00:02.610Z,66.44
2023-01-13T16:02:34.561Z,66.80
2023-01-13T16:05:02.124Z,66.43
2023-01-13T16:07:30.740Z,66.62
2023-01-13T16:09:59.642Z,66.94
2023-01-13T16:12:27.109Z,66.79
2023-01-13T16:14:54.604Z,66.39
2023-01-13T16:17:25.237Z,67.19
2023-01-13T16:19:52.705Z,66.52
2023-01-13T16:22:20.421Z,66.85
2023-01-13T16:24:48.475Z,67.02
2023-01-13T16:27:19.117Z,66.66
2023-01-13T16:29:47.488Z,67.04
2023-01-13T16:32:15.452Z,67.00
2023-01-13T16:34:43.418Z,67.00
2023-01-13T16:37:25.805Z,67.80
2023-01-13T16:39:54.747Z,66.45
2023-01-13T16:42:22.400Z,67.03
2023-01-13T16:44:50.842Z,66.84
2023-01-13T16:47:19.251Z,67.20
2023-01-13T16:49:47.619Z,67.85
2023-01-13T16:52:15.619Z,67.26
2023-01-13T16:54:43.053Z,66.67
2023-01-13T16:57:13.636Z,66.87
2023-01-13T16:59:41.177Z,66.89
2023-01-13T17:02:16.369Z,67.19
2023-01-13T17:04:43.868Z,66.66
2023-01-13T17:07:17.075Z,67.07
2023-01-13T17:09:45.029Z,67.40
2023-01-13T17:12:12.633Z,67.56
2023-01-13T17:14:43.550Z,67.47
2023-01-13T17:17:23.570Z,67.03
2023-01-13T17:19:51.974Z,67.08
2023-01-13T17:22:21.279Z,67.34
2023-01-13T17:24:48.969Z,67.12
2023-01-13T17:30:52.155Z,67.21
2023-01-13T17:33:53.152Z,66.80
2023-01-13T17:37:22.469Z,66.88
2023-01-13T17:40:58.056Z,67.13
2023-01-13T17:43:48.510Z,66.19
2023-01-13T17:47:12.117Z,66.67
2023-01-13T17:49:54.366Z,66.56
2023-01-13T17:52:21.836Z,66.86
2023-01-13T17:54:49.309Z,66.91
2023-01-13T17:57:16.848Z,67.19
2023-01-13T17:59:44.369Z,67.05
2023-01-13T18:02:12.749Z,66.90
2023-01-13T18:04:40.778Z,67.06
2023-01-13T18:07:08.563Z,66.94
2023-01-13T18:09:38.229Z,66.86
2023-01-13T18:12:07.135Z,67.23
2023-01-13T18:14:35.206Z,67.44
2023-01-13T18:17:02.792Z,67.20
2023-01-13T18:19:48.894Z,67.74
2023-01-13T18:22:34.947Z,67.65
2023-01-13T18:25:22.039Z,67.30
2023-01-13T18:27:49.707Z,67.30
2023-01-13T18:30:20.581Z,67.35
2023-01-13T18:32:50.581Z,67.25
2023-01-13T18:35:18.123Z,66.93
2023-01-13T18:37:45.631Z,67.29
2023-01-13T18:40:13.925Z,66.91
2023-01-13T18:42:54.937Z,67.15
2023-01-13T18:45:25.718Z,67.86
2023-01-13T18:47:55.409Z,67.48
2023-01-13T18:50:23.755Z,67.57
2023-01-13T18:52:51.961Z,67.38
2023-01-13T18:55:20.300Z,67.46
2023-01-13T18:57:48.218Z,67.36
2023-01-13T19:00:19.268Z,67.26
2023-01-13T19:02:48.102Z,67.38
2023-01-13T19:05:15.836Z,67.47
2023-01-13T19:07:50.392Z,67.13
2023-01-13T19:10:18.683Z,67.23
2023-01-13T19:12:46.201Z,66.95
2023-01-13T19:15:13.902Z,66.67
2023-01-13T19:17:41.457Z,66.85
2023-01-13T19:20:11.388Z,67.42
2023-01-13T19:22:39.178Z,67.11
2023-01-13T19:25:06.941Z,66.95
2023-01-13T19:27:34.632Z,66.94
2023-01-13T19:30:02.642Z,67.14
2023-01-13T19:32:33.638Z,67.02
2023-01-13T19:35:01.918Z,67.12
2023-01-13T19:37:33.777Z,66.60
2023-01-13T19:40:01.477Z,66.80
2023-01-13T19:42:49.503Z,66.91
2023-01-13T19:45:26.502Z,66.64
2023-01-13T19:47:55.381Z,67.12
2023-01-13T19:50:25.605Z,66.72
2023-01-13T19:52:55.181Z,66.66
2023-01-13T19:55:23.252Z,66.87
2023-01-13T19:57:50.748Z,67.25
2023-01-13T20:00:20.980Z,67.58
2023-01-13T20:02:51.945Z,67.02
2023-01-13T20:05:22.856Z,67.09
2023-01-13T20:07:51.206Z,67.22
2023-01-13T20:10:20.288Z,67.53
2023-01-13T20:12:48.102Z,67.89
2023-01-13T20:15:16.080Z,67.97
2023-01-13T20:17:43.832Z,67.76
2023-01-13T20:20:12.156Z,68.29
2023-01-13T20:22:40.252Z,67.52
2023-01-13T20:25:09.184Z,67.26
2023-01-13T20:27:36.967Z,67.41
2023-01-13T20:30:09.639Z,67.77
2023-01-13T20:32:37.647Z,66.89
2023-01-13T20:35:06.201Z,67.11
2023-01-13T20:37:34.785Z,67.05
2023-01-13T20:40:06.166Z,67.06
2023-01-13T20:42:42.565Z,67.31
2023-01-13T20:45:11.863Z,67.69
2023-01-13T20:47:42.624Z,67.51
2023-01-13T20:50:13.053Z,67.39
2023-01-13T20:52:40.588Z,67.67
2023-01-13T20:55:09.778Z,67.41
2023-01-13T20:57:37.401Z,67.71
2023-01-13T21:00:05.893Z,67.86
2023-01-13T21:02:33.682Z,67.65
2023-01-13T21:05:01.226Z,67.83
2023-01-13T21:07:28.761Z,67.81
2023-01-13T21:09:57.479Z,67.43
2023-01-13T21:12:43.555Z,67.35
2023-01-13T21:15:18.116Z,67.21
2023-01-13T21:18:05.593Z,67.40
2023-01-13T21:20:34.661Z,67.21
2023-01-13T21:23:03.492Z,67.23
2023-01-13T21:25:33.953Z,66.91
2023-01-13T21:28:20.524Z,66.65
2023-01-13T21:30:48.028Z,66.93
2023-01-13T21:33:15.542Z,66.82
2023-01-13T21:35:43.083Z,67.10
2023-01-13T21:38:11.509Z,67.06
2023-01-13T21:40:39.042Z,67.47
2023-01-13T21:43:25.105Z,67.70
2023-01-13T21:46:11.206Z,67.35
2023-01-13T21:48:38.705Z,67.03
2023-01-13T21:51:08.495Z,66.93
2023-01-13T21:53:36.014Z,66.54
2023-01-13T21:56:03.686Z,66.41
2023-01-13T21:58:33.575Z,66.89
2023-01-13T22:01:02.795Z,66.99
2023-01-13T22:03:30.723Z,67.27
2023-01-13T22:05:58.188Z,67.33
2023-01-13T22:08:25.812Z,66.89
2023-01-13T22:10:59.441Z,67.19
2023-01-13T22:13:48.369Z,67.41
2023-01-13T22:16:16.231Z,66.84
2023-01-13T22:18:43.873Z,67.19
2023-01-13T22:21:11.583Z,67.23
2023-01-13T22:23:39.293Z,67.01
2023-01-13T22:26:10.748Z,67.14
2023-01-13T22:28:43.122Z,67.39
2023-01-13T22:31:16.215Z,67.55
2023-01-13T22:33:47.282Z,67.57
2023-01-13T22:36:18.199Z,67.44
2023-01-13T22:38:46.013Z,67.70
2023-01-13T22:41:13.690Z,67.45
2023-01-13T22:43:41.432Z,67.22
2023-01-13T22:46:11.629Z,67.45
2023-01-13T22:48:40.969Z,67.52
2023-01-13T22:51:14.308Z,67.77
2023-01-13T22:53:42.828Z,67.74
2023-01-13T22:56:17.052Z,67.58
2023-01-13T22:58:45.053Z,67.36
2023-01-13T23:01:17.471Z,67.22
2023-01-13T23:03:47.986Z,67.27
2023-01-13T23:06:16.208Z,67.13
2023-01-13T23:08:44.118Z,67.03
2023-01-13T23:11:14.159Z,67.17
2023-01-13T23:13:45.817Z,66.93
2023-01-13T23:16:23.755Z,66.95
2023-01-13T23:18:51.286Z,67.21
2023-01-13T23:21:26.429Z,67.51
2023-01-13T23:23:54.487Z,67.11
2023-01-13T23:26:22.676Z,67.20
2023-01-13T23:28:50.655Z,67.44
2023-01-13T23:31:21.619Z,67.36
2023-01-13T23:33:49.483Z,67.30
2023-01-13T23:36:23.672Z,67.00
2023-01-13T23:38:52.110Z,66.92
2023-01-13T23:41:25.029Z,67.15
2023-01-13T23:43:58.988Z,67.43
2023-01-13T23:46:35.985Z,67.29
2023-01-13T23:49:04.180Z,67.21
2023-01-13T23:51:31.979Z,67.08
2023-01-13T23:53:59.831Z,66.96
2023-01-13T23:56:30.414Z,66.57
2023-01-13T23:58:58.784Z,66.85
